createdAt,value
2023-04-16T00:00:54.836Z,11.45
2023-04-16T00:03:33.867Z,19.42
2023-04-16T00:06:01.863Z,12.80
2023-04-16T00:08:29.843Z,11.23
2023-04-16T00:10:57.501Z,10.67
2023-04-16T00:13:27.346Z,10.55
2023-04-16T00:15:54.965Z,11.40
2023-04-16T00:18:22.907Z,10.27
2023-04-16T00:20:51.037Z,19.95
2023-04-16T00:23:18.824Z,8.70
2023-04-16T00:25:46.575Z,8.27
2023-04-16T00:28:14.503Z,9.07
2023-04-16T00:30:42.227Z,9.35
2023-04-16T00:33:10.163Z,8.25
2023-04-16T00:35:37.830Z,11.73
2023-04-16T00:38:05.806Z,10.00
2023-04-16T00:40:33.575Z,10.15
2023-04-16T00:43:01.308Z,12.77
2023-04-16T00:45:29.026Z,11.50
2023-04-16T00:47:59.214Z,9.47
2023-04-16T00:50:28.249Z,15.02
2023-04-16T00:52:57.065Z,14.18
2023-04-16T00:55:25.119Z,13.02
2023-04-16T00:57:53.327Z,11.38
2023-04-16T01:00:21.814Z,10.87
2023-04-16T01:02:49.830Z,12.05
2023-04-16T01:05:17.548Z,9.75
2023-04-16T01:07:45.266Z,9.35
2023-04-16T01:10:12.767Z,9.38
2023-04-16T01:12:40.521Z,11.50
2023-04-16T01:15:08.916Z,10.27
2023-04-16T01:17:36.756Z,10.85
2023-04-16T01:20:04.443Z,11.13
2023-04-16T01:22:32.202Z,12.88
2023-04-16T01:24:59.794Z,13.68
2023-04-16T01:27:27.469Z,11.32
2023-04-16T01:29:56.640Z,9.85
2023-04-16T01:32:34.948Z,7.80
2023-04-16T01:35:02.513Z,9.75
2023-04-16T01:37:31.216Z,12.90
2023-04-16T01:39:58.779Z,9.20
2023-04-16T01:42:26.510Z,8.52
2023-04-16T01:44:54.051Z,8.23
2023-04-16T01:47:22.321Z,7.55
2023-04-16T01:49:50.077Z,9.90
2023-04-16T01:52:17.753Z,10.02
2023-04-16T01:54:45.411Z,11.05
2023-04-16T01:57:13.157Z,8.90
2023-04-16T01:59:40.845Z,9.45
2023-04-16T02:02:14.889Z,8.67
2023-04-16T02:04:45.415Z,9.70
2023-04-16T02:07:13.227Z,16.00
2023-04-16T02:09:41.516Z,14.05
2023-04-16T02:12:11.602Z,10.77
2023-04-16T02:14:39.139Z,14.38
2023-04-16T02:17:07.048Z,12.70
2023-04-16T02:19:42.102Z,10.27
2023-04-16T02:22:11.078Z,14.18
2023-04-16T02:24:41.487Z,10.07
2023-04-16T02:27:11.560Z,8.13
2023-04-16T02:29:39.882Z,11.40
2023-04-16T02:32:14.401Z,8.85
2023-04-16T02:34:45.223Z,10.20
2023-04-16T02:37:15.706Z,12.80
2023-04-16T02:39:44.221Z,9.32
2023-04-16T02:42:11.893Z,11.73
2023-04-16T02:44:39.432Z,12.90
2023-04-16T02:47:07.321Z,13.27
2023-04-16T02:49:36.075Z,17.27
2023-04-16T02:52:03.803Z,15.77
2023-04-16T02:54:31.331Z,13.15
2023-04-16T02:56:58.921Z,11.93
2023-04-16T02:59:26.354Z,13.07
2023-04-16T03:01:54.220Z,12.98
2023-04-16T03:04:21.942Z,12.17
2023-04-16T03:06:49.686Z,10.60
2023-04-16T03:09:17.531Z,7.07
2023-04-16T03:11:45.193Z,10.00
2023-04-16T03:14:12.809Z,11.35
2023-04-16T03:16:40.840Z,9.40
2023-04-16T03:19:08.576Z,13.60
2023-04-16T03:21:37.831Z,14.30
2023-04-16T03:24:05.305Z,14.55
2023-04-16T03:26:33.086Z,16.42
2023-04-16T03:29:02.510Z,16.77
2023-04-16T03:31:32.581Z,13.65
2023-04-16T03:34:00.236Z,10.93
2023-04-16T03:36:28.060Z,12.65
2023-04-16T03:38:55.655Z,13.35
2023-04-16T03:41:23.524Z,16.70
2023-04-16T03:43:51.150Z,14.02
2023-04-16T03:46:18.939Z,11.07
2023-04-16T03:48:46.393Z,11.70
2023-04-16T03:51:14.272Z,13.45
2023-04-16T03:53:41.694Z,13.27
2023-04-16T03:56:09.747Z,12.27
2023-04-16T03:58:40.828Z,13.18
2023-04-16T04:01:09.403Z,13.95
2023-04-16T04:03:38.145Z,18.27
2023-04-16T04:06:09.968Z,20.33
2023-04-16T04:08:37.370Z,15.00
2023-04-16T04:11:06.365Z,17.23
2023-04-16T04:13:35.685Z,22.67
2023-04-16T04:16:05.414Z,25.08
2023-04-16T04:18:33.077Z,24.67
2023-04-16T04:21:04.967Z,18.98
2023-04-16T04:23:33.999Z,18.33
2023-04-16T04:26:04.205Z,13.70
2023-04-16T04:28:32.950Z,14.18
2023-04-16T04:31:01.685Z,13.07
2023-04-16T04:33:31.210Z,13.35
2023-04-16T04:35:59.536Z,15.60
2023-04-16T04:38:27.835Z,17.63
2023-04-16T04:40:55.763Z,15.02
2023-04-16T04:43:24.806Z,14.07
2023-04-16T04:45:52.949Z,13.90
2023-04-16T04:48:21.977Z,13.63
2023-04-16T04:50:51.733Z,12.00
2023-04-16T04:53:19.326Z,18.25
2023-04-16T04:55:49.290Z,17.43
2023-04-16T04:58:20.697Z,14.00
2023-04-16T05:00:48.882Z,11.10
2023-04-16T05:03:21.987Z,13.48
2023-04-16T05:05:50.067Z,14.20
2023-04-16T05:08:17.738Z,19.07
2023-04-16T05:10:47.802Z,17.77
2023-04-16T05:13:15.366Z,31.10
2023-04-16T05:15:46.101Z,27.25
2023-04-16T05:18:13.806Z,23.65
2023-04-16T05:20:41.946Z,28.50
2023-04-16T05:23:09.529Z,18.42
2023-04-16T05:25:37.400Z,21.33
2023-04-16T05:28:05.229Z,21.58
2023-04-16T05:30:33.191Z,13.98
2023-04-16T05:33:01.014Z,19.63
2023-04-16T05:35:29.078Z,10.25
2023-04-16T05:37:56.667Z,13.00
2023-04-16T05:40:24.701Z,15.20
2023-04-16T05:42:52.438Z,15.02
2023-04-16T05:45:20.480Z,15.87
2023-04-16T05:47:48.160Z,12.70
2023-04-16T05:50:16.416Z,15.35
2023-04-16T05:52:44.045Z,14.13
2023-04-16T05:55:11.834Z,10.00
2023-04-16T05:57:54.470Z,13.20
2023-04-16T06:00:23.168Z,11.75
2023-04-16T06:02:51.897Z,12.70
2023-04-16T06:05:26.992Z,13.23
2023-04-16T06:07:54.721Z,11.98
2023-04-16T06:10:22.865Z,12.87
2023-04-16T06:12:50.818Z,10.48
2023-04-16T06:15:18.770Z,13.80
2023-04-16T06:17:46.529Z,10.65
2023-04-16T06:20:14.540Z,9.93
2023-04-16T06:22:42.503Z,12.07
2023-04-16T06:25:10.500Z,13.40
2023-04-16T06:27:38.400Z,11.32
2023-04-16T06:30:11.671Z,15.00
2023-04-16T06:32:39.602Z,16.45
2023-04-16T06:35:07.967Z,12.20
2023-04-16T06:37:35.875Z,13.15
2023-04-16T06:40:04.132Z,12.10
2023-04-16T06:42:48.719Z,11.20
2023-04-16T06:45:16.885Z,9.77
2023-04-16T06:47:53.710Z,10.20
2023-04-16T06:50:39.180Z,10.90
2023-04-16T06:53:26.548Z,8.43
2023-04-16T06:56:24.339Z,9.75
2023-04-16T06:59:00.973Z,12.30
2023-04-16T07:01:33.656Z,12.73
2023-04-16T07:04:01.540Z,11.52
2023-04-16T07:06:32.196Z,11.65
2023-04-16T07:09:01.155Z,12.32
2023-04-16T07:11:30.726Z,12.25
2023-04-16T07:13:59.323Z,10.50
2023-04-16T07:16:27.407Z,9.48
2023-04-16T07:18:55.146Z,9.90
2023-04-16T07:21:23.216Z,10.40
2023-04-16T07:23:50.901Z,10.43
2023-04-16T07:26:19.327Z,7.50
2023-04-16T07:28:59.200Z,9.55
2023-04-16T07:31:27.901Z,9.50
2023-04-16T07:33:55.781Z,8.52
2023-04-16T07:36:24.331Z,10.35
2023-04-16T07:38:51.878Z,11.00
2023-04-16T07:41:27.057Z,8.30
2023-04-16T07:44:08.631Z,7.32
2023-04-16T07:46:46.929Z,7.22
2023-04-16T07:49:25.586Z,7.03
2023-04-16T07:51:57.656Z,8.67
2023-04-16T07:54:41.404Z,10.23
2023-04-16T07:57:10.283Z,7.00
2023-04-16T07:59:57.701Z,10.85
2023-04-16T08:02:25.978Z,7.82
2023-04-16T08:04:54.076Z,10.27
2023-04-16T08:07:23.587Z,9.43
2023-04-16T08:13:25.430Z,8.05
2023-04-16T08:15:53.527Z,8.85
2023-04-16T08:18:29.433Z,7.27
2023-04-16T08:21:04.594Z,8.73
2023-04-16T08:23:33.506Z,11.05
2023-04-16T08:26:02.739Z,8.95
2023-04-16T08:28:32.049Z,6.90
2023-04-16T08:31:08.797Z,5.70
2023-04-16T08:33:36.616Z,6.70
2023-04-16T08:36:25.102Z,5.60
2023-04-16T08:39:08.312Z,7.00
2023-04-16T08:45:06.870Z,5.53
2023-04-16T08:52:21.794Z,8.07
2023-04-16T08:55:09.345Z,5.90
2023-04-16T08:57:59.315Z,5.72
2023-04-16T09:00:28.958Z,6.20
2023-04-16T09:03:06.788Z,7.88
2023-04-16T09:05:35.923Z,5.50
2023-04-16T09:08:06.635Z,6.75
2023-04-16T09:10:35.259Z,6.43
2023-04-16T09:13:02.912Z,8.47
2023-04-16T09:15:36.362Z,6.20
2023-04-16T09:18:04.304Z,6.15
2023-04-16T09:20:32.393Z,5.65
2023-04-16T09:23:00.246Z,5.95
2023-04-16T09:25:28.829Z,6.07
2023-04-16T09:27:57.650Z,5.97
2023-04-16T09:30:27.584Z,5.95
2023-04-16T09:33:23.811Z,5.40
2023-04-16T09:35:53.766Z,8.25
2023-04-16T09:38:21.757Z,8.07
2023-04-16T09:41:11.621Z,20.77
2023-04-16T09:43:39.649Z,10.82
2023-04-16T09:46:08.587Z,4.68
2023-04-16T09:48:36.573Z,7.20
2023-04-16T09:51:27.498Z,6.97
2023-04-16T09:54:13.814Z,5.60
2023-04-16T09:56:57.625Z,7.93
2023-04-16T09:59:37.861Z,6.50
2023-04-16T10:02:15.307Z,5.80
2023-04-16T10:04:51.719Z,6.27
2023-04-16T10:07:22.974Z,6.85
2023-04-16T10:09:52.846Z,19.65
2023-04-16T10:12:21.343Z,13.77
2023-04-16T10:14:51.242Z,4.85
2023-04-16T10:17:19.850Z,6.87
2023-04-16T10:19:48.077Z,7.18
2023-04-16T10:22:19.184Z,6.85
2023-04-16T10:24:47.542Z,5.57
2023-04-16T10:27:15.351Z,7.53
2023-04-16T10:29:43.906Z,8.93
2023-04-16T10:32:12.676Z,7.18
2023-04-16T10:34:41.053Z,6.00
2023-04-16T10:40:02.312Z,4.72
2023-04-16T10:43:00.572Z,7.53
2023-04-16T10:45:32.631Z,4.65
2023-04-16T10:48:05.736Z,6.07
2023-04-16T10:50:43.072Z,4.82
2023-04-16T10:53:31.210Z,6.53
2023-04-16T10:56:14.103Z,3.93
2023-04-16T11:02:32.073Z,9.93
2023-04-16T11:05:02.740Z,6.50
2023-04-16T11:07:36.568Z,9.85
2023-04-16T11:10:30.037Z,7.40
2023-04-16T11:13:09.535Z,6.25
2023-04-16T11:15:52.079Z,3.95
2023-04-16T11:19:11.719Z,6.03
2023-04-16T11:21:59.860Z,6.35
2023-04-16T11:24:31.987Z,7.17
2023-04-16T11:27:02.390Z,5.93
2023-04-16T11:33:12.424Z,3.70
2023-04-16T11:36:13.117Z,5.65
2023-04-16T11:43:28.248Z,4.20
2023-04-16T11:46:27.021Z,4.22
2023-04-16T11:49:49.038Z,4.85
2023-04-16T11:53:06.523Z,6.65
2023-04-16T11:55:46.569Z,6.60
2023-04-16T11:58:48.450Z,5.28
2023-04-16T12:05:54.458Z,6.35
2023-04-16T12:08:35.155Z,4.32
2023-04-16T12:15:21.857Z,3.58
2023-04-16T12:18:37.069Z,4.50
2023-04-16T12:21:26.168Z,6.60
2023-04-16T12:24:19.248Z,7.57
2023-04-16T12:30:11.805Z,13.23
2023-04-16T12:32:42.409Z,9.77
2023-04-16T12:38:54.164Z,8.32
2023-04-16T12:41:38.697Z,8.17
2023-04-16T12:44:21.984Z,6.68
2023-04-16T12:46:49.739Z,8.38
2023-04-16T12:49:18.238Z,5.75
2023-04-16T12:51:49.644Z,7.07
2023-04-16T12:54:29.287Z,4.03
2023-04-16T12:56:57.749Z,4.50
2023-04-16T12:59:25.882Z,7.68
2023-04-16T13:01:53.652Z,7.63
2023-04-16T13:04:29.914Z,5.80
2023-04-16T13:06:57.725Z,3.93
2023-04-16T13:09:26.357Z,2.42
2023-04-16T13:11:53.991Z,5.03
2023-04-16T13:18:20.627Z,3.95
2023-04-16T13:25:23.301Z,5.13
2023-04-16T13:28:28.280Z,6.35
2023-04-16T13:31:05.826Z,6.20
2023-04-16T13:33:52.540Z,5.40
2023-04-16T13:36:44.506Z,5.17
2023-04-16T13:40:02.327Z,5.90
2023-04-16T13:43:22.001Z,6.78
2023-04-16T13:46:15.165Z,5.75
2023-04-16T13:53:47.404Z,9.87
2023-04-16T13:57:05.283Z,6.20
2023-04-16T13:59:56.189Z,6.03
2023-04-16T14:02:30.196Z,4.95
2023-04-16T14:05:47.335Z,5.85
2023-04-16T14:08:20.641Z,4.70
2023-04-16T14:10:48.944Z,6.13
2023-04-16T14:13:19.919Z,9.65
2023-04-16T14:16:17.032Z,7.05
2023-04-16T14:18:56.835Z,5.65
2023-04-16T14:24:37.329Z,8.05
2023-04-16T14:27:27.067Z,8.75
2023-04-16T14:29:58.012Z,5.55
2023-04-16T14:32:27.597Z,6.63
2023-04-16T14:34:55.283Z,33.27
2023-04-16T14:37:23.162Z,23.00
2023-04-16T14:39:51.320Z,9.60
2023-04-16T14:42:20.068Z,8.80
2023-04-16T14:44:47.602Z,8.35
2023-04-16T14:47:15.861Z,19.13
2023-04-16T14:49:43.624Z,17.08
2023-04-16T14:52:14.601Z,18.45
2023-04-16T14:54:43.221Z,11.27
2023-04-16T14:57:21.137Z,9.48
2023-04-16T14:59:49.205Z,7.60
2023-04-16T15:02:17.367Z,7.40
2023-04-16T15:04:59.289Z,6.10
2023-04-16T15:07:28.007Z,3.85
2023-04-16T15:09:55.887Z,5.50
2023-04-16T15:12:24.017Z,7.10
2023-04-16T15:15:01.390Z,6.95
2023-04-16T15:17:37.053Z,6.57
2023-04-16T15:20:08.627Z,10.45
2023-04-16T15:22:54.933Z,10.48
2023-04-16T15:25:23.812Z,8.43
2023-04-16T15:27:52.460Z,5.43
2023-04-16T15:30:20.351Z,6.53
2023-04-16T15:33:12.732Z,6.00
2023-04-16T15:35:41.647Z,10.05
2023-04-16T15:38:09.644Z,9.90
2023-04-16T15:40:55.528Z,8.25
2023-04-16T15:43:23.602Z,3.97
2023-04-16T15:45:51.531Z,5.65
2023-04-16T15:48:23.559Z,4.50
2023-04-16T15:50:55.284Z,3.63
2023-04-16T15:53:23.302Z,4.57
2023-04-16T15:55:53.151Z,8.23
2023-04-16T15:58:33.842Z,3.70
2023-04-16T16:01:27.848Z,5.95
2023-04-16T16:04:26.934Z,6.23
2023-04-16T16:07:22.525Z,10.63
2023-04-16T16:09:52.296Z,15.02
2023-04-16T16:12:21.566Z,14.32
2023-04-16T16:14:49.832Z,25.92
2023-04-16T16:17:18.758Z,9.87
2023-04-16T16:20:00.886Z,8.85
2023-04-16T16:22:30.678Z,8.63
2023-04-16T16:25:08.301Z,7.75
2023-04-16T16:27:36.988Z,6.65
2023-04-16T16:30:15.029Z,7.57
2023-04-16T16:32:44.579Z,10.07
2023-04-16T16:35:37.323Z,16.00
2023-04-16T16:38:04.896Z,13.75
2023-04-16T16:40:38.882Z,9.35
2023-04-16T16:43:06.841Z,13.33
2023-04-16T16:45:34.818Z,29.52
2023-04-16T16:48:16.543Z,7.10
2023-04-16T16:50:49.445Z,6.35
2023-04-16T16:53:18.356Z,7.03
2023-04-16T16:55:46.762Z,5.03
2023-04-16T16:58:36.635Z,7.90
2023-04-16T17:01:56.650Z,7.20
2023-04-16T17:04:25.059Z,9.50
2023-04-16T17:06:54.468Z,7.75
2023-04-16T17:09:23.452Z,7.37
2023-04-16T17:11:53.919Z,7.30
2023-04-16T17:14:36.332Z,12.48
2023-04-16T17:21:15.932Z,10.88
2023-04-16T17:23:44.394Z,9.23
2023-04-16T17:26:16.512Z,9.85
2023-04-16T17:28:45.162Z,9.52
2023-04-16T17:31:19.316Z,19.38
2023-04-16T17:33:47.055Z,22.30
2023-04-16T17:36:15.070Z,28.00
2023-04-16T17:38:56.093Z,28.45
2023-04-16T17:41:29.413Z,18.67
2023-04-16T17:44:00.426Z,23.67
2023-04-16T17:46:28.534Z,12.45
2023-04-16T17:48:56.255Z,10.73
2023-04-16T17:51:24.356Z,12.50
2023-04-16T17:53:52.305Z,10.52
2023-04-16T17:56:20.499Z,10.82
2023-04-16T17:58:48.323Z,8.23
2023-04-16T18:01:16.415Z,7.77
2023-04-16T18:03:44.987Z,12.50
2023-04-16T18:06:13.194Z,10.93
2023-04-16T18:08:41.138Z,10.25
2023-04-16T18:11:09.689Z,6.93
2023-04-16T18:13:37.431Z,13.27
2023-04-16T18:16:06.684Z,8.35
2023-04-16T18:18:34.692Z,15.18
2023-04-16T18:21:02.899Z,7.20
2023-04-16T18:23:30.400Z,4.90
2023-04-16T18:25:59.051Z,6.10
2023-04-16T18:28:27.228Z,3.30
2023-04-16T18:30:58.709Z,5.68
2023-04-16T18:33:52.298Z,5.20
2023-04-16T18:36:16.863Z,4.10
2023-04-16T18:38:59.339Z,4.63
2023-04-16T18:41:29.538Z,5.32
2023-04-16T18:43:57.683Z,5.75
2023-04-16T18:46:26.992Z,7.70
2023-04-16T18:48:54.789Z,7.10
2023-04-16T18:51:24.192Z,11.10
2023-04-16T18:53:51.938Z,8.13
2023-04-16T18:56:20.086Z,7.47
2023-04-16T18:58:48.122Z,7.28
2023-04-16T19:01:16.933Z,9.63
2023-04-16T19:03:44.570Z,7.30
2023-04-16T19:06:13.899Z,6.90
2023-04-16T19:08:41.465Z,5.82
2023-04-16T19:11:09.566Z,5.68
2023-04-16T19:13:38.601Z,5.53
2023-04-16T19:16:11.867Z,6.00
2023-04-16T19:18:39.634Z,4.43
2023-04-16T19:21:07.561Z,4.97
2023-04-16T19:23:35.157Z,5.38
2023-04-16T19:26:04.281Z,6.07
2023-04-16T19:28:32.250Z,5.83
2023-04-16T19:31:00.199Z,5.93
2023-04-16T19:33:27.806Z,5.43
2023-04-16T19:35:56.231Z,5.88
2023-04-16T19:38:23.864Z,5.13
2023-04-16T19:40:52.049Z,6.73
2023-04-16T19:43:19.856Z,6.65
2023-04-16T19:45:53.736Z,5.47
2023-04-16T19:48:21.859Z,4.72
2023-04-16T19:50:49.922Z,7.07
2023-04-16T19:53:17.666Z,16.37
2023-04-16T19:55:45.619Z,17.15
2023-04-16T19:58:14.861Z,8.98
2023-04-16T20:00:43.076Z,20.45
2023-04-16T20:03:10.881Z,21.80
2023-04-16T20:05:38.961Z,21.77
2023-04-16T20:08:06.837Z,14.52
2023-04-16T20:10:34.857Z,11.20
2023-04-16T20:13:02.650Z,10.55
2023-04-16T20:15:30.633Z,10.43
2023-04-16T20:17:58.202Z,7.17
2023-04-16T20:20:26.212Z,9.40
2023-04-16T20:22:53.924Z,8.65
2023-04-16T20:25:21.934Z,7.90
2023-04-16T20:27:49.570Z,8.40
2023-04-16T20:30:17.524Z,6.90
2023-04-16T20:32:45.295Z,8.32
2023-04-16T20:35:13.237Z,6.70
2023-04-16T20:37:42.472Z,10.93
2023-04-16T20:40:11.129Z,9.23
2023-04-16T20:42:38.761Z,12.03
2023-04-16T20:45:07.633Z,8.05
2023-04-16T20:47:35.292Z,8.68
2023-04-16T20:50:04.183Z,8.30
2023-04-16T20:52:31.957Z,6.88
2023-04-16T20:54:59.794Z,7.90
2023-04-16T20:57:28.514Z,8.82
2023-04-16T20:59:56.745Z,8.05
2023-04-16T21:02:24.728Z,6.80
2023-04-16T21:04:52.951Z,6.90
2023-04-16T21:07:20.849Z,8.23
2023-04-16T21:09:48.713Z,9.02
2023-04-16T21:12:16.612Z,8.73
2023-04-16T21:14:44.522Z,8.10
2023-04-16T21:17:12.269Z,6.68
2023-04-16T21:19:40.595Z,7.67
2023-04-16T21:22:08.529Z,7.88
2023-04-16T21:24:36.477Z,8.23
2023-04-16T21:27:04.224Z,7.80
2023-04-16T21:29:32.808Z,7.75
2023-04-16T21:32:00.540Z,7.17
2023-04-16T21:34:28.404Z,8.30
2023-04-16T21:36:56.190Z,5.90
2023-04-16T21:39:28.161Z,6.63
2023-04-16T21:41:56.830Z,6.90
2023-04-16T21:44:24.910Z,9.27
2023-04-16T21:46:52.654Z,8.90
2023-04-16T21:49:20.671Z,10.15
2023-04-16T21:51:48.188Z,7.35
2023-04-16T21:54:18.898Z,8.52
2023-04-16T21:56:46.673Z,5.67
2023-04-16T21:59:14.531Z,8.80
2023-04-16T22:01:42.272Z,6.63
2023-04-16T22:04:12.506Z,9.10
2023-04-16T22:06:40.933Z,6.45
2023-04-16T22:09:09.807Z,7.70
2023-04-16T22:11:38.694Z,10.63
2023-04-16T22:14:08.615Z,11.32
2023-04-16T22:16:36.261Z,8.75
2023-04-16T22:19:04.322Z,9.52
2023-04-16T22:21:31.993Z,9.67
2023-04-16T22:23:59.812Z,7.47
2023-04-16T22:26:27.960Z,10.27
2023-04-16T22:28:56.064Z,7.63
2023-04-16T22:31:23.772Z,7.03
2023-04-16T22:33:51.689Z,8.50
2023-04-16T22:36:19.339Z,8.35
2023-04-16T22:38:47.229Z,6.03
2023-04-16T22:41:15.001Z,8.27
2023-04-16T22:43:43.418Z,7.50
2023-04-16T22:46:11.064Z,8.03
2023-04-16T22:48:40.053Z,6.93
2023-04-16T22:51:09.023Z,6.80
2023-04-16T22:53:37.111Z,7.10
2023-04-16T22:56:06.568Z,7.43
2023-04-16T22:58:34.663Z,6.30
2023-04-16T23:01:02.374Z,5.85
2023-04-16T23:03:31.033Z,7.70
2023-04-16T23:05:58.726Z,6.28
2023-04-16T23:08:26.566Z,8.10
2023-04-16T23:10:54.105Z,6.83
2023-04-16T23:13:21.822Z,6.68
2023-04-16T23:15:49.308Z,6.70
2023-04-16T23:18:17.397Z,5.82
2023-04-16T23:20:45.207Z,6.03
2023-04-16T23:23:12.863Z,6.17
2023-04-16T23:25:41.835Z,5.90
2023-04-16T23:28:09.515Z,6.32
2023-04-16T23:30:37.116Z,7.28
2023-04-16T23:33:06.607Z,7.03
2023-04-16T23:35:34.916Z,6.93
2023-04-16T23:38:02.749Z,5.75
2023-04-16T23:40:30.430Z,8.27
2023-04-16T23:42:58.255Z,6.38
2023-04-16T23:45:26.250Z,7.60
2023-04-16T23:47:54.092Z,6.60
2023-04-16T23:50:21.776Z,6.20
2023-04-16T23:52:49.684Z,9.23
2023-04-16T23:55:17.125Z,7.57
2023-04-16T23:57:44.967Z,6.63
